sensor_id;sensor_type;location;lat;lon;timestamp;pressure;altitude;pressure_sealevel;temperature;humidity
15932;BME280;8065;49.520;11.284;2023-02-18T00:00:10;98093.72;;;15.04;80.88
15932;BME280;8065;49.520;11.284;2023-02-18T00:02:37;98096.72;;;15.03;80.87
15932;BME280;8065;49.520;11.284;2023-02-18T00:05:04;98093.38;;;15.06;80.74
15932;BME280;8065;49.520;11.284;2023-02-18T00:07:34;98102.75;;;15.00;81.22
15932;BME280;8065;49.520;11.284;2023-02-18T00:10:00;98110.47;;;15.14;80.91
15932;BME280;8065;49.520;11.284;2023-02-18T00:12:28;98104.13;;;15.18;80.64
15932;BME280;8065;49.520;11.284;2023-02-18T00:14:55;98110.09;;;15.03;81.36
15932;BME280;8065;49.520;11.284;2023-02-18T00:17:22;98103.34;;;15.18;80.92
15932;BME280;8065;49.520;11.284;2023-02-18T00:19:48;98104.78;;;15.15;80.69
15932;BME280;8065;49.520;11.284;2023-02-18T00:22:15;98118.06;;;15.12;81.28
15932;BME280;8065;49.520;11.284;2023-02-18T00:24:43;98099.44;;;15.15;80.99
15932;BME280;8065;49.520;11.284;2023-02-18T00:27:09;98104.34;;;15.13;80.82
15932;BME280;8065;49.520;11.284;2023-02-18T00:29:36;98103.22;;;15.14;80.67
15932;BME280;8065;49.520;11.284;2023-02-18T00:32:02;98101.00;;;15.16;80.45
15932;BME280;8065;49.520;11.284;2023-02-18T00:34:29;98105.13;;;15.14;81.27
15932;BME280;8065;49.520;11.284;2023-02-18T00:36:55;98109.00;;;15.04;81.65
15932;BME280;8065;49.520;11.284;2023-02-18T00:39:21;98100.63;;;15.05;81.79
15932;BME280;8065;49.520;11.284;2023-02-18T00:41:49;98094.91;;;14.95;82.14
15932;BME280;8065;49.520;11.284;2023-02-18T00:44:16;98100.50;;;15.02;81.95
15932;BME280;8065;49.520;11.284;2023-02-18T00:46:42;98100.31;;;15.07;82.40
15932;BME280;8065;49.520;11.284;2023-02-18T00:49:12;98095.63;;;15.04;82.00
15932;BME280;8065;49.520;11.284;2023-02-18T00:51:39;98094.25;;;14.98;82.74
15932;BME280;8065;49.520;11.284;2023-02-18T00:54:05;98110.28;;;14.86;82.52
15932;BME280;8065;49.520;11.284;2023-02-18T00:56:31;98111.19;;;14.90;82.98
15932;BME280;8065;49.520;11.284;2023-02-18T00:58:59;98111.81;;;14.74;83.93
15932;BME280;8065;49.520;11.284;2023-02-18T01:01:26;98106.69;;;14.82;83.42
15932;BME280;8065;49.520;11.284;2023-02-18T01:03:53;98106.03;;;14.85;82.82
15932;BME280;8065;49.520;11.284;2023-02-18T01:06:19;98105.16;;;14.93;82.57
15932;BME280;8065;49.520;11.284;2023-02-18T01:08:48;98110.44;;;15.01;82.18
15932;BME280;8065;49.520;11.284;2023-02-18T01:11:14;98110.31;;;14.98;82.63
15932;BME280;8065;49.520;11.284;2023-02-18T01:13:41;98104.72;;;14.91;82.63
15932;BME280;8065;49.520;11.284;2023-02-18T01:16:10;98112.97;;;14.86;83.58
15932;BME280;8065;49.520;11.284;2023-02-18T01:18:36;98102.25;;;14.86;83.85
15932;BME280;8065;49.520;11.284;2023-02-18T01:21:04;98107.16;;;14.84;83.53
15932;BME280;8065;49.520;11.284;2023-02-18T01:23:32;98108.47;;;14.77;83.84
15932;BME280;8065;49.520;11.284;2023-02-18T01:25:59;98103.03;;;14.86;84.05
15932;BME280;8065;49.520;11.284;2023-02-18T01:28:25;98104.47;;;14.84;84.23
15932;BME280;8065;49.520;11.284;2023-02-18T01:30:52;98096.00;;;14.82;84.46
15932;BME280;8065;49.520;11.284;2023-02-18T01:33:20;98110.91;;;14.70;84.90
15932;BME280;8065;49.520;11.284;2023-02-18T01:35:47;98103.69;;;14.83;84.22
15932;BME280;8065;49.520;11.284;2023-02-18T01:38:14;98099.25;;;14.87;83.74
15932;BME280;8065;49.520;11.284;2023-02-18T01:40:45;98097.56;;;14.83;84.69
15932;BME280;8065;49.520;11.284;2023-02-18T01:43:13;98106.44;;;14.62;85.65
15932;BME280;8065;49.520;11.284;2023-02-18T01:45:58;98101.09;;;14.74;84.57
15932;BME280;8065;49.520;11.284;2023-02-18T01:48:31;98100.44;;;14.77;85.09
15932;BME280;8065;49.520;11.284;2023-02-18T01:51:02;98104.00;;;14.69;84.84
15932;BME280;8065;49.520;11.284;2023-02-18T01:53:36;98108.78;;;14.76;84.75
15932;BME280;8065;49.520;11.284;2023-02-18T01:56:05;98106.69;;;14.82;84.87
15932;BME280;8065;49.520;11.284;2023-02-18T01:58:34;98108.25;;;14.83;84.80
15932;BME280;8065;49.520;11.284;2023-02-18T02:01:01;98108.91;;;14.80;84.72
15932;BME280;8065;49.520;11.284;2023-02-18T02:03:29;98104.47;;;14.84;85.20
15932;BME280;8065;49.520;11.284;2023-02-18T02:05:55;98107.13;;;14.71;86.72
15932;BME280;8065;49.520;11.284;2023-02-18T02:08:22;98115.09;;;14.59;87.55
15932;BME280;8065;49.520;11.284;2023-02-18T02:11:03;98099.72;;;14.56;87.73
15932;BME280;8065;49.520;11.284;2023-02-18T02:13:45;98100.78;;;14.43;89.11
15932;BME280;8065;49.520;11.284;2023-02-18T02:16:19;98097.09;;;14.27;89.56
15932;BME280;8065;49.520;11.284;2023-02-18T02:18:57;98097.75;;;14.45;89.38
15932;BME280;8065;49.520;11.284;2023-02-18T02:21:51;98093.84;;;14.42;89.23
15932;BME280;8065;49.520;11.284;2023-02-18T02:24:32;98085.09;;;14.54;88.82
15932;BME280;8065;49.520;11.284;2023-02-18T02:27:19;98090.91;;;14.56;89.30
15932;BME280;8065;49.520;11.284;2023-02-18T02:30:12;98084.06;;;14.46;89.25
15932;BME280;8065;49.520;11.284;2023-02-18T02:32:55;98088.31;;;14.47;89.49
15932;BME280;8065;49.520;11.284;2023-02-18T02:35:28;98081.84;;;14.48;90.01
15932;BME280;8065;49.520;11.284;2023-02-18T02:38:00;98074.19;;;14.38;90.28
15932;BME280;8065;49.520;11.284;2023-02-18T02:40:34;98073.09;;;14.39;90.25
15932;BME280;8065;49.520;11.284;2023-02-18T02:43:09;98068.69;;;14.43;90.07
15932;BME280;8065;49.520;11.284;2023-02-18T02:45:43;98075.25;;;14.46;90.21
15932;BME280;8065;49.520;11.284;2023-02-18T02:48:18;98077.53;;;14.35;90.35
15932;BME280;8065;49.520;11.284;2023-02-18T02:50:53;98076.22;;;14.41;90.27
15932;BME280;8065;49.520;11.284;2023-02-18T02:53:25;98073.09;;;14.39;90.54
15932;BME280;8065;49.520;11.284;2023-02-18T02:55:52;98066.34;;;14.41;90.51
15932;BME280;8065;49.520;11.284;2023-02-18T02:58:21;98061.75;;;14.42;90.02
15932;BME280;8065;49.520;11.284;2023-02-18T03:00:58;98060.38;;;14.36;90.17
15932;BME280;8065;49.520;11.284;2023-02-18T03:03:48;98051.06;;;14.42;90.94
15932;BME280;8065;49.520;11.284;2023-02-18T03:06:41;98059.78;;;14.30;91.19
15932;BME280;8065;49.520;11.284;2023-02-18T03:09:16;98059.47;;;14.32;90.11
15932;BME280;8065;49.520;11.284;2023-02-18T03:11:52;98057.19;;;14.42;90.16
15932;BME280;8065;49.520;11.284;2023-02-18T03:14:27;98052.47;;;14.39;90.66
15932;BME280;8065;49.520;11.284;2023-02-18T03:16:58;98056.25;;;14.38;90.73
15932;BME280;8065;49.520;11.284;2023-02-18T03:19:30;98053.00;;;14.33;90.92
15932;BME280;8065;49.520;11.284;2023-02-18T03:22:04;98044.84;;;14.29;91.21
15932;BME280;8065;49.520;11.284;2023-02-18T03:24:34;98056.91;;;14.35;90.57
15932;BME280;8065;49.520;11.284;2023-02-18T03:27:05;98052.34;;;14.36;90.87
15932;BME280;8065;49.520;11.284;2023-02-18T03:29:34;98059.59;;;14.35;90.28
15932;BME280;8065;49.520;11.284;2023-02-18T03:32:05;98057.97;;;14.43;89.98
15932;BME280;8065;49.520;11.284;2023-02-18T03:34:35;98057.97;;;14.43;90.52
15932;BME280;8065;49.520;11.284;2023-02-18T03:37:05;98055.16;;;14.39;90.05
15932;BME280;8065;49.520;11.284;2023-02-18T03:39:35;98060.19;;;14.41;90.19
15932;BME280;8065;49.520;11.284;2023-02-18T03:42:02;98062.22;;;14.44;89.51
15932;BME280;8065;49.520;11.284;2023-02-18T03:44:29;98057.78;;;14.48;89.90
15932;BME280;8065;49.520;11.284;2023-02-18T03:46:56;98058.22;;;14.50;89.28
15932;BME280;8065;49.520;11.284;2023-02-18T03:49:22;98065.81;;;14.48;89.73
15932;BME280;8065;49.520;11.284;2023-02-18T03:51:49;98068.94;;;14.50;89.74
15932;BME280;8065;49.520;11.284;2023-02-18T03:54:16;98064.91;;;14.44;89.10
15932;BME280;8065;49.520;11.284;2023-02-18T03:56:44;98062.34;;;14.48;89.19
15932;BME280;8065;49.520;11.284;2023-02-18T03:59:11;98061.13;;;14.45;88.92
15932;BME280;8065;49.520;11.284;2023-02-18T04:01:39;98056.66;;;14.49;89.15
15932;BME280;8065;49.520;11.284;2023-02-18T04:04:05;98064.91;;;14.44;88.88
15932;BME280;8065;49.520;11.284;2023-02-18T04:06:32;98070.50;;;14.51;89.14
15932;BME280;8065;49.520;11.284;2023-02-18T04:08:58;98066.78;;;14.43;89.29
15932;BME280;8065;49.520;11.284;2023-02-18T04:11:26;98071.81;;;14.45;89.25
15932;BME280;8065;49.520;11.284;2023-02-18T04:13:52;98060.47;;;14.48;89.22
15932;BME280;8065;49.520;11.284;2023-02-18T04:16:19;98063.59;;;14.50;88.60
15932;BME280;8065;49.520;11.284;2023-02-18T04:18:45;98062.69;;;14.46;89.04
15932;BME280;8065;49.520;11.284;2023-02-18T04:21:12;98066.72;;;14.52;88.47
15932;BME280;8065;49.520;11.284;2023-02-18T04:23:38;98065.81;;;14.48;88.73
15932;BME280;8065;49.520;11.284;2023-02-18T04:26:04;98069.59;;;14.47;88.76
15932;BME280;8065;49.520;11.284;2023-02-18T04:28:32;98077.47;;;14.43;88.99
15932;BME280;8065;49.520;11.284;2023-02-18T04:30:59;98070.09;;;14.40;88.39
15932;BME280;8065;49.520;11.284;2023-02-18T04:33:25;98063.91;;;14.49;88.31
15932;BME280;8065;49.520;11.284;2023-02-18T04:35:51;98069.06;;;14.54;88.42
15932;BME280;8065;49.520;11.284;2023-02-18T04:38:18;98062.03;;;14.49;89.36
15932;BME280;8065;49.520;11.284;2023-02-18T04:40:44;98057.31;;;14.46;89.12
15932;BME280;8065;49.520;11.284;2023-02-18T04:43:11;98064.13;;;14.43;88.70
15932;BME280;8065;49.520;11.284;2023-02-18T04:45:39;98061.13;;;14.45;89.13
15932;BME280;8065;49.520;11.284;2023-02-18T04:48:05;98064.25;;;14.47;89.19
15932;BME280;8065;49.520;11.284;2023-02-18T04:50:32;98064.38;;;14.51;88.29
15932;BME280;8065;49.520;11.284;2023-02-18T04:52:59;98059.16;;;14.54;88.55
15932;BME280;8065;49.520;11.284;2023-02-18T04:55:25;98064.94;;;14.56;88.49
15932;BME280;8065;49.520;11.284;2023-02-18T04:57:52;98059.94;;;14.55;87.97
15932;BME280;8065;49.520;11.284;2023-02-18T05:00:19;98051.06;;;14.42;88.70
15932;BME280;8065;49.520;11.284;2023-02-18T05:02:47;98065.81;;;14.48;88.85
15932;BME280;8065;49.520;11.284;2023-02-18T05:05:13;98053.19;;;14.28;89.46
15932;BME280;8065;49.520;11.284;2023-02-18T05:07:40;98055.22;;;14.31;88.82
15932;BME280;8065;49.520;11.284;2023-02-18T05:10:08;98059.91;;;14.34;88.95
15932;BME280;8065;49.520;11.284;2023-02-18T05:12:35;98064.34;;;14.30;88.55
15932;BME280;8065;49.520;11.284;2023-02-18T05:15:02;98065.34;;;14.46;88.29
15932;BME280;8065;49.520;11.284;2023-02-18T05:17:28;98062.47;;;14.30;88.91
15932;BME280;8065;49.520;11.284;2023-02-18T05:19:56;98045.63;;;14.30;88.87
15932;BME280;8065;49.520;11.284;2023-02-18T05:22:23;98054.56;;;14.34;89.28
15932;BME280;8065;49.520;11.284;2023-02-18T05:24:49;98052.16;;;14.41;89.17
15932;BME280;8065;49.520;11.284;2023-02-18T05:27:15;98049.69;;;14.36;89.17
15932;BME280;8065;49.520;11.284;2023-02-18T05:29:42;98044.78;;;14.38;89.34
15932;BME280;8065;49.520;11.284;2023-02-18T05:32:08;98051.69;;;14.39;89.61
15932;BME280;8065;49.520;11.284;2023-02-18T05:34:35;98051.25;;;14.37;89.62
15932;BME280;8065;49.520;11.284;2023-02-18T05:37:03;98047.34;;;14.34;89.84
15932;BME280;8065;49.520;11.284;2023-02-18T05:39:29;98051.00;;;14.30;89.94
15932;BME280;8065;49.520;11.284;2023-02-18T05:41:56;98043.38;;;14.20;90.13
15932;BME280;8065;49.520;11.284;2023-02-18T05:44:22;98052.75;;;14.26;90.62
15932;BME280;8065;49.520;11.284;2023-02-18T05:46:59;98041.41;;;14.29;90.04
15932;BME280;8065;49.520;11.284;2023-02-18T05:49:27;98046.75;;;14.29;90.21
15932;BME280;8065;49.520;11.284;2023-02-18T05:51:53;98047.66;;;14.33;90.24
15932;BME280;8065;49.520;11.284;2023-02-18T05:54:22;98047.28;;;14.22;90.26
15932;BME280;8065;49.520;11.284;2023-02-18T05:56:49;98038.41;;;14.30;90.43
15932;BME280;8065;49.520;11.284;2023-02-18T05:59:15;98045.84;;;14.25;90.75
15932;BME280;8065;49.520;11.284;2023-02-18T06:01:43;98041.66;;;14.15;91.05
15932;BME280;8065;49.520;11.284;2023-02-18T06:04:10;98035.34;;;14.20;90.54
15932;BME280;8065;49.520;11.284;2023-02-18T06:06:36;98052.09;;;14.29;90.09
15932;BME280;8065;49.520;11.284;2023-02-18T06:09:03;98047.41;;;14.26;90.08
15932;BME280;8065;49.520;11.284;2023-02-18T06:11:32;98046.75;;;14.29;90.26
15932;BME280;8065;49.520;11.284;2023-02-18T06:13:59;98043.22;;;14.16;90.36
15932;BME280;8065;49.520;11.284;2023-02-18T06:16:26;98036.00;;;14.17;90.28
15932;BME280;8065;49.520;11.284;2023-02-18T06:18:52;98042.38;;;14.24;90.87
15932;BME280;8065;49.520;11.284;2023-02-18T06:21:19;98043.03;;;14.21;90.73
15932;BME280;8065;49.520;11.284;2023-02-18T06:23:45;98038.59;;;14.25;90.24
15932;BME280;8065;49.520;11.284;2023-02-18T06:26:12;98032.53;;;14.16;90.71
15932;BME280;8065;49.520;11.284;2023-02-18T06:28:40;98039.97;;;14.10;91.21
15932;BME280;8065;49.520;11.284;2023-02-18T06:31:07;98033.06;;;14.09;91.21
15932;BME280;8065;49.520;11.284;2023-02-18T06:33:33;98033.72;;;14.06;90.93
15932;BME280;8065;49.520;11.284;2023-02-18T06:36:01;98026.63;;;14.10;90.50
15932;BME280;8065;49.520;11.284;2023-02-18T06:38:28;98023.41;;;13.96;91.60
15932;BME280;8065;49.520;11.284;2023-02-18T06:40:54;98008.94;;;13.97;91.22
15932;BME280;8065;49.520;11.284;2023-02-18T06:43:21;98015.66;;;14.03;90.29
15932;BME280;8065;49.520;11.284;2023-02-18T06:45:49;98017.28;;;14.17;89.94
15932;BME280;8065;49.520;11.284;2023-02-18T06:48:15;98013.38;;;14.14;89.90
15932;BME280;8065;49.520;11.284;2023-02-18T06:50:42;98013.25;;;14.10;89.51
15932;BME280;8065;49.520;11.284;2023-02-18T06:53:09;98003.72;;;14.22;89.48
15932;BME280;8065;49.520;11.284;2023-02-18T06:55:36;98006.34;;;14.09;89.03
15932;BME280;8065;49.520;11.284;2023-02-18T06:58:02;98005.69;;;14.13;88.04
15932;BME280;8065;49.520;11.284;2023-02-18T07:00:29;98009.22;;;14.04;88.86
15932;BME280;8065;49.520;11.284;2023-02-18T07:02:57;98005.16;;;13.98;88.29
15932;BME280;8065;49.520;11.284;2023-02-18T07:05:24;98006.72;;;13.99;88.29
15932;BME280;8065;49.520;11.284;2023-02-18T07:07:50;98006.41;;;14.01;87.35
15932;BME280;8065;49.520;11.284;2023-02-18T07:10:17;97999.63;;;14.03;88.35
15932;BME280;8065;49.520;11.284;2023-02-18T07:12:43;98004.78;;;14.08;87.08
15932;BME280;8065;49.520;11.284;2023-02-18T07:15:10;98007.44;;;14.08;87.24
15932;BME280;8065;49.520;11.284;2023-02-18T07:17:37;98005.41;;;14.26;86.02
15932;BME280;8065;49.520;11.284;2023-02-18T07:20:06;98015.22;;;14.01;85.57
15932;BME280;8065;49.520;11.284;2023-02-18T07:22:33;98003.94;;;14.17;85.47
15932;BME280;8065;49.520;11.284;2023-02-18T07:24:59;97988.09;;;14.11;85.85
15932;BME280;8065;49.520;11.284;2023-02-18T07:27:26;98000.16;;;13.97;86.00
15932;BME280;8065;49.520;11.284;2023-02-18T07:29:52;98004.84;;;14.00;86.63
15932;BME280;8065;49.520;11.284;2023-02-18T07:32:19;97987.03;;;14.25;85.30
15932;BME280;8065;49.520;11.284;2023-02-18T07:34:46;98000.47;;;14.16;85.47
15932;BME280;8065;49.520;11.284;2023-02-18T07:37:13;97983.13;;;14.22;85.46
15932;BME280;8065;49.520;11.284;2023-02-18T07:39:40;97989.28;;;14.35;84.64
15932;BME280;8065;49.520;11.284;2023-02-18T07:42:07;98000.94;;;14.18;85.34
15932;BME280;8065;49.520;11.284;2023-02-18T07:44:34;97996.06;;;14.32;84.40
15932;BME280;8065;49.520;11.284;2023-02-18T07:47:01;98017.53;;;14.24;85.28
15932;BME280;8065;49.520;11.284;2023-02-18T07:49:28;98005.28;;;14.23;84.18
15932;BME280;8065;49.520;11.284;2023-02-18T07:51:54;98000.84;;;14.27;83.62
15932;BME280;8065;49.520;11.284;2023-02-18T07:54:22;97994.38;;;14.49;83.71
15932;BME280;8065;49.520;11.284;2023-02-18T07:56:48;97993.53;;;14.36;83.18
15932;BME280;8065;49.520;11.284;2023-02-18T07:59:15;98003.84;;;14.46;82.82
15932;BME280;8065;49.520;11.284;2023-02-18T08:01:41;97995.28;;;14.53;82.75
15932;BME280;8065;49.520;11.284;2023-02-18T08:04:08;97981.06;;;14.40;82.74
15932;BME280;8065;49.520;11.284;2023-02-18T08:06:36;97984.94;;;14.63;82.18
15932;BME280;8065;49.520;11.284;2023-02-18T08:09:03;97988.53;;;14.80;81.26
15932;BME280;8065;49.520;11.284;2023-02-18T08:11:32;97986.75;;;14.84;81.77
15932;BME280;8065;49.520;11.284;2023-02-18T08:13:59;97992.53;;;14.73;81.64
15932;BME280;8065;49.520;11.284;2023-02-18T08:16:25;97985.84;;;14.80;81.05
15932;BME280;8065;49.520;11.284;2023-02-18T08:18:52;97983.63;;;14.82;81.22
15932;BME280;8065;49.520;11.284;2023-02-18T08:21:20;97984.94;;;14.75;80.69
15932;BME280;8065;49.520;11.284;2023-02-18T08:23:48;97977.16;;;14.95;80.12
15932;BME280;8065;49.520;11.284;2023-02-18T08:26:15;97971.59;;;15.12;80.16
15932;BME280;8065;49.520;11.284;2023-02-18T08:28:44;97967.13;;;14.92;79.74
15932;BME280;8065;49.520;11.284;2023-02-18T08:31:16;97975.84;;;15.01;80.05
15932;BME280;8065;49.520;11.284;2023-02-18T08:33:43;97973.81;;;15.10;78.97
15932;BME280;8065;49.520;11.284;2023-02-18T08:36:10;97961.78;;;15.16;79.00
15932;BME280;8065;49.520;11.284;2023-02-18T08:38:36;97952.63;;;15.29;78.42
15932;BME280;8065;49.520;11.284;2023-02-18T08:41:04;97947.91;;;15.51;76.69
15932;BME280;8065;49.520;11.284;2023-02-18T08:43:31;97941.59;;;15.83;75.70
15932;BME280;8065;49.520;11.284;2023-02-18T08:45:58;97940.09;;;16.42;73.95
15932;BME280;8065;49.520;11.284;2023-02-18T08:48:25;97933.34;;;16.63;73.25
15932;BME280;8065;49.520;11.284;2023-02-18T08:50:52;97942.28;;;16.67;73.08
15932;BME280;8065;49.520;11.284;2023-02-18T08:53:19;97944.53;;;16.65;72.58
15932;BME280;8065;49.520;11.284;2023-02-18T08:55:45;97944.25;;;16.55;72.85
15932;BME280;8065;49.520;11.284;2023-02-18T08:58:12;97944.56;;;16.22;73.22
15932;BME280;8065;49.520;11.284;2023-02-18T09:00:41;97933.78;;;15.78;73.45
15932;BME280;8065;49.520;11.284;2023-02-18T09:03:11;97930.28;;;15.90;73.30
15932;BME280;8065;49.520;11.284;2023-02-18T09:05:38;97926.13;;;15.92;73.72
15932;BME280;8065;49.520;11.284;2023-02-18T09:08:05;97921.47;;;16.33;72.77
15932;BME280;8065;49.520;11.284;2023-02-18T09:10:31;97901.41;;;16.27;72.43
15932;BME280;8065;49.520;11.284;2023-02-18T09:12:58;97911.06;;;16.16;72.52
15932;BME280;8065;49.520;11.284;2023-02-18T09:15:25;97900.16;;;16.09;72.67
15932;BME280;8065;49.520;11.284;2023-02-18T09:17:51;97903.47;;;16.18;72.18
15932;BME280;8065;49.520;11.284;2023-02-18T09:20:19;97890.94;;;16.37;72.19
15932;BME280;8065;49.520;11.284;2023-02-18T09:22:46;97894.97;;;16.16;72.29
15932;BME280;8065;49.520;11.284;2023-02-18T09:25:12;97902.44;;;16.38;72.36
15932;BME280;8065;49.520;11.284;2023-02-18T09:27:39;97893.22;;;16.08;72.49
15932;BME280;8065;49.520;11.284;2023-02-18T09:30:06;97892.75;;;16.18;72.43
15932;BME280;8065;49.520;11.284;2023-02-18T09:32:33;97905.53;;;16.09;72.48
15932;BME280;8065;49.520;11.284;2023-02-18T09:34:59;97898.41;;;15.72;72.51
15932;BME280;8065;49.520;11.284;2023-02-18T09:37:28;97902.50;;;15.82;73.59
15932;BME280;8065;49.520;11.284;2023-02-18T09:39:54;97904.84;;;15.84;73.40
15932;BME280;8065;49.520;11.284;2023-02-18T09:42:25;97918.09;;;15.64;73.97
15932;BME280;8065;49.520;11.284;2023-02-18T09:44:55;97896.91;;;15.87;73.00
15932;BME280;8065;49.520;11.284;2023-02-18T09:47:27;97896.91;;;15.87;73.26
15932;BME280;8065;49.520;11.284;2023-02-18T09:49:57;97885.25;;;15.95;73.38
15932;BME280;8065;49.520;11.284;2023-02-18T09:52:29;97904.50;;;15.85;73.03
15932;BME280;8065;49.520;11.284;2023-02-18T09:54:57;97895.50;;;15.78;73.25
15932;BME280;8065;49.520;11.284;2023-02-18T09:57:28;97888.47;;;15.73;73.38
15932;BME280;8065;49.520;11.284;2023-02-18T09:59:58;97887.34;;;15.74;73.76
15932;BME280;8065;49.520;11.284;2023-02-18T10:02:26;97885.75;;;15.57;74.13
15932;BME280;8065;49.520;11.284;2023-02-18T10:04:54;97897.69;;;15.88;73.39
15932;BME280;8065;49.520;11.284;2023-02-18T10:07:25;97877.16;;;15.80;73.99
15932;BME280;8065;49.520;11.284;2023-02-18T10:09:55;97884.03;;;15.93;73.52
15932;BME280;8065;49.520;11.284;2023-02-18T10:12:24;97888.47;;;15.73;73.43
15932;BME280;8065;49.520;11.284;2023-02-18T10:14:53;97891.28;;;15.92;73.18
15932;BME280;8065;49.520;11.284;2023-02-18T10:17:21;97894.59;;;15.73;73.34
15932;BME280;8065;49.520;11.284;2023-02-18T10:19:50;97892.38;;;15.76;74.09
15932;BME280;8065;49.520;11.284;2023-02-18T10:22:17;97878.34;;;15.66;73.25
15932;BME280;8065;49.520;11.284;2023-02-18T10:24:47;97876.63;;;15.74;73.21
15932;BME280;8065;49.520;11.284;2023-02-18T10:27:20;97872.59;;;15.80;73.03
15932;BME280;8065;49.520;11.284;2023-02-18T10:29:48;97877.25;;;15.83;72.81
15932;BME280;8065;49.520;11.284;2023-02-18T10:32:19;97874.91;;;16.10;72.07
15932;BME280;8065;49.520;11.284;2023-02-18T10:34:49;97854.34;;;15.86;71.46
15932;BME280;8065;49.520;11.284;2023-02-18T10:37:55;97861.13;;;15.95;71.43
15932;BME280;8065;49.520;11.284;2023-02-18T10:40:25;97848.63;;;15.71;70.80
15932;BME280;8065;49.520;11.284;2023-02-18T10:43:05;97837.69;;;15.92;70.88
15932;BME280;8065;49.520;11.284;2023-02-18T10:45:41;97847.31;;;16.09;70.40
15932;BME280;8065;49.520;11.284;2023-02-18T10:48:35;97839.47;;;16.32;68.90
15932;BME280;8065;49.520;11.284;2023-02-18T10:51:13;97830.81;;;16.23;69.09
15932;BME280;8065;49.520;11.284;2023-02-18T10:53:41;97841.53;;;16.23;69.13
15932;BME280;8065;49.520;11.284;2023-02-18T10:56:32;97842.91;;;16.17;69.18
15932;BME280;8065;49.520;11.284;2023-02-18T10:59:10;97847.13;;;16.02;69.00
15932;BME280;8065;49.520;11.284;2023-02-18T11:01:37;97838.75;;;16.03;69.75
15932;BME280;8065;49.520;11.284;2023-02-18T11:04:07;97823.38;;;16.32;69.19
15932;BME280;8065;49.520;11.284;2023-02-18T11:06:39;97831.94;;;16.22;68.56
15932;BME280;8065;49.520;11.284;2023-02-18T11:09:27;97823.19;;;16.25;68.38
15932;BME280;8065;49.520;11.284;2023-02-18T11:12:02;97823.00;;;16.49;67.72
15932;BME280;8065;49.520;11.284;2023-02-18T11:14:41;97809.88;;;16.44;67.75
15932;BME280;8065;49.520;11.284;2023-02-18T11:17:24;97819.22;;;16.19;67.78
15932;BME280;8065;49.520;11.284;2023-02-18T11:19:54;97795.50;;;16.36;67.67
15932;BME280;8065;49.520;11.284;2023-02-18T11:22:22;97803.91;;;16.19;67.71
15932;BME280;8065;49.520;11.284;2023-02-18T11:24:53;97794.97;;;15.99;68.48
15932;BME280;8065;49.520;11.284;2023-02-18T11:27:23;97795.50;;;16.21;68.05
15932;BME280;8065;49.520;11.284;2023-02-18T11:29:55;97796.63;;;16.20;68.36
15932;BME280;8065;49.520;11.284;2023-02-18T11:32:26;97799.13;;;16.44;68.20
15932;BME280;8065;49.520;11.284;2023-02-18T11:34:53;97792.75;;;16.33;67.89
15932;BME280;8065;49.520;11.284;2023-02-18T11:37:21;97793.03;;;16.47;67.47
15932;BME280;8065;49.520;11.284;2023-02-18T11:39:49;97784.31;;;16.50;67.89
15932;BME280;8065;49.520;11.284;2023-02-18T11:42:18;97775.44;;;16.46;67.67
15932;BME280;8065;49.520;11.284;2023-02-18T11:44:49;97798.09;;;16.33;67.80
15932;BME280;8065;49.520;11.284;2023-02-18T11:47:21;97780.19;;;16.21;68.24
15932;BME280;8065;49.520;11.284;2023-02-18T11:50:02;97761.75;;;16.35;68.08
15932;BME280;8065;49.520;11.284;2023-02-18T11:52:33;97771.19;;;16.29;67.48
15932;BME280;8065;49.520;11.284;2023-02-18T11:55:02;97768.00;;;16.24;67.97
15932;BME280;8065;49.520;11.284;2023-02-18T11:57:29;97769.91;;;16.39;67.69
15932;BME280;8065;49.520;11.284;2023-02-18T11:59:57;97773.00;;;16.41;68.01
15932;BME280;8065;49.520;11.284;2023-02-18T12:02:31;97764.69;;;16.46;67.66
15932;BME280;8065;49.520;11.284;2023-02-18T12:05:02;97761.59;;;16.44;67.35
15932;BME280;8065;49.520;11.284;2023-02-18T12:07:32;97757.97;;;16.21;67.83
15932;BME280;8065;49.520;11.284;2023-02-18T12:10:11;97747.25;;;16.21;67.85
15932;BME280;8065;49.520;11.284;2023-02-18T12:12:44;97751.47;;;16.37;66.96
15932;BME280;8065;49.520;11.284;2023-02-18T12:15:15;97748.72;;;16.53;67.43
15932;BME280;8065;49.520;11.284;2023-02-18T12:18:09;97752.59;;;16.36;67.32
15932;BME280;8065;49.520;11.284;2023-02-18T12:20:51;97747.56;;;16.35;66.93
15932;BME280;8065;49.520;11.284;2023-02-18T12:23:24;97749.41;;;16.31;67.12
15932;BME280;8065;49.520;11.284;2023-02-18T12:25:59;97740.25;;;16.51;66.39
15932;BME280;8065;49.520;11.284;2023-02-18T12:28:49;97739.38;;;16.28;67.32
15932;BME280;8065;49.520;11.284;2023-02-18T12:31:29;97744.97;;;16.38;67.78
15932;BME280;8065;49.520;11.284;2023-02-18T12:34:16;97729.53;;;16.51;67.09
15932;BME280;8065;49.520;11.284;2023-02-18T12:36:55;97741.13;;;16.55;66.76
15932;BME280;8065;49.520;11.284;2023-02-18T12:39:33;97745.97;;;16.65;66.34
15932;BME280;8065;49.520;11.284;2023-02-18T12:58:05;97748.03;;;16.56;66.46
15932;BME280;8065;49.520;11.284;2023-02-18T13:00:48;97749.47;;;16.34;66.38
15932;BME280;8065;49.520;11.284;2023-02-18T13:06:26;97738.06;;;16.57;66.14
15932;BME280;8065;49.520;11.284;2023-02-18T13:09:02;97736.84;;;16.35;66.22
15932;BME280;8065;49.520;11.284;2023-02-18T13:11:43;97734.97;;;16.55;66.03
15932;BME280;8065;49.520;11.284;2023-02-18T13:14:18;97716.97;;;16.55;65.85
15932;BME280;8065;49.520;11.284;2023-02-18T13:16:50;97711.53;;;16.52;65.64
15932;BME280;8065;49.520;11.284;2023-02-18T13:19:20;97705.53;;;16.39;65.73
15932;BME280;8065;49.520;11.284;2023-02-18T13:21:51;97706.38;;;16.43;65.92
15932;BME280;8065;49.520;11.284;2023-02-18T13:24:29;97710.56;;;16.25;65.91
15932;BME280;8065;49.520;11.284;2023-02-18T13:27:04;97713.44;;;16.51;65.35
15932;BME280;8065;49.520;11.284;2023-02-18T13:29:35;97691.09;;;16.28;66.03
15932;BME280;8065;49.520;11.284;2023-02-18T13:32:11;97697.59;;;16.27;65.87